Time;durP1;ratioP1;P1;durP2;ratioP2;P2;SDS_P1;SDS_P2;PMS_P1;PMS_P2;Temp;Humidity;BMP_temperature;BMP_pressure;BME280_temperature;BME280_humidity;BME280_pressure;Samples;Min_cycle;Max_cycle;Signal;HPM_P1;HPM_P2
2024/03/26 00:01:06;;;;;;;10.00;3.97;;;;;;;;;;5006668;28;20469;-84
2024/03/26 00:03:32;;;;;;;9.10;4.00;;;;;;;;;;5006799;28;20813;-85
2024/03/26 00:05:58;;;;;;;8.70;3.63;;;;;;;;;;5005665;28;20441;-83
2024/03/26 00:08:24;;;;;;;7.37;3.07;;;;;;;;;;5007496;28;20472;-82
2024/03/26 00:10:51;;;;;;;7.23;4.20;;;;;;;;;;5006458;28;20410;-84
2024/03/26 00:13:17;;;;;;;8.97;3.50;;;;;;;;;;5005556;28;20759;-84
2024/03/26 00:15:43;;;;;;;5.50;2.60;;;;;;;;;;5007344;28;20557;-85
2024/03/26 00:18:09;;;;;;;9.07;2.50;;;;;;;;;;5006090;28;20507;-84
2024/03/26 00:20:35;;;;;;;4.97;2.60;;;;;;;;;;5006184;28;20419;-84
2024/03/26 00:23:01;;;;;;;5.53;3.33;;;;;;;;;;5007499;28;20784;-82
2024/03/26 00:25:27;;;;;;;4.90;2.50;;;;;;;;;;5005633;28;20410;-82
2024/03/26 00:27:53;;;;;;;7.23;2.90;;;;;;;;;;5005751;28;20448;-82
2024/03/26 00:30:19;;;;;;;6.23;3.40;;;;;;;;;;5007171;28;20826;-83
2024/03/26 00:32:44;;;;;;;7.57;2.70;;;;;;;;;;5005099;28;20434;-82
2024/03/26 00:35:10;;;;;;;7.97;3.60;;;;;;;;;;5006353;28;20823;-83
2024/03/26 00:37:36;;;;;;;7.20;3.17;;;;;;;;;;5007046;28;20410;-82
2024/03/26 00:40:03;;;;;;;6.97;3.27;;;;;;;;;;5004907;28;20410;-80
2024/03/26 00:42:28;;;;;;;5.13;2.20;;;;;;;;;;5005494;28;20416;-84
2024/03/26 00:44:54;;;;;;;5.00;3.03;;;;;;;;;;5006490;28;20411;-79
2024/03/26 00:47:20;;;;;;;5.93;3.63;;;;;;;;;;5003576;28;20414;-79
2024/03/26 00:49:46;;;;;;;7.33;3.23;;;;;;;;;;5006789;28;20433;-81
2024/03/26 00:52:12;;;;;;;10.27;2.60;;;;;;;;;;5005801;28;20426;-81
2024/03/26 00:54:38;;;;;;;6.20;3.20;;;;;;;;;;5005181;28;20472;-81
2024/03/26 00:57:04;;;;;;;7.93;3.37;;;;;;;;;;5006390;28;20406;-81
2024/03/26 00:59:30;;;;;;;5.87;3.50;;;;;;;;;;5005117;28;20469;-82
2024/03/26 01:01:56;;;;;;;6.63;2.60;;;;;;;;;;5005451;28;20881;-82
2024/03/26 01:04:22;;;;;;;11.80;4.07;;;;;;;;;;5006781;28;20402;-82
2024/03/26 01:06:47;;;;;;;7.00;3.03;;;;;;;;;;5004875;28;20412;-81
2024/03/26 01:09:13;;;;;;;9.90;3.07;;;;;;;;;;5004410;28;20875;-81
2024/03/26 01:11:39;;;;;;;8.27;3.77;;;;;;;;;;5006048;28;20434;-81
2024/03/26 01:14:05;;;;;;;7.00;4.20;;;;;;;;;;5004119;28;20985;-82
2024/03/26 01:16:31;;;;;;;7.10;3.27;;;;;;;;;;5005898;28;20412;-81
2024/03/26 01:18:57;;;;;;;6.03;2.87;;;;;;;;;;5005856;28;20505;-82
2024/03/26 01:21:23;;;;;;;7.50;3.23;;;;;;;;;;5003360;28;20434;-81
2024/03/26 01:23:49;;;;;;;6.30;2.80;;;;;;;;;;5005740;28;20418;-83
2024/03/26 01:26:15;;;;;;;6.33;3.13;;;;;;;;;;5003698;28;20945;-81
2024/03/26 01:28:41;;;;;;;11.37;4.00;;;;;;;;;;5003884;28;20433;-82
2024/03/26 01:31:07;;;;;;;8.97;3.80;;;;;;;;;;5005737;28;20456;-82
2024/03/26 01:33:33;;;;;;;8.67;3.53;;;;;;;;;;5004780;28;20458;-81
2024/03/26 01:35:59;;;;;;;7.90;4.77;;;;;;;;;;5003918;28;20822;-81
2024/03/26 01:38:25;;;;;;;4.90;2.97;;;;;;;;;;5005706;28;20489;-83
2024/03/26 01:40:51;;;;;;;9.37;2.50;;;;;;;;;;5004447;28;20414;-82
2024/03/26 01:43:17;;;;;;;9.53;3.53;;;;;;;;;;5003959;28;20409;-81
2024/03/26 01:45:42;;;;;;;7.97;3.23;;;;;;;;;;5005819;28;20468;-80
2024/03/26 01:48:09;;;;;;;11.77;3.97;;;;;;;;;;5003954;28;20407;-81
2024/03/26 01:50:35;;;;;;;6.63;3.47;;;;;;;;;;5004563;28;20977;-81
2024/03/26 01:53:02;;;;;;;7.43;3.40;;;;;;;;;;5005435;28;20473;-81
2024/03/26 01:55:28;;;;;;;6.60;2.77;;;;;;;;;;5003640;28;20474;-81
2024/03/26 01:57:54;;;;;;;5.27;3.23;;;;;;;;;;5003060;28;20913;-81
2024/03/26 02:00:20;;;;;;;6.67;3.43;;;;;;;;;;5005325;28;20423;-81
2024/03/26 02:02:46;;;;;;;8.40;3.40;;;;;;;;;;5002332;28;20926;-83
2024/03/26 02:05:12;;;;;;;6.90;3.30;;;;;;;;;;5004947;28;20472;-81
2024/03/26 02:07:39;;;;;;;5.43;3.00;;;;;;;;;;5005097;28;20418;-82
2024/03/26 02:10:07;;;;;;;6.57;3.40;;;;;;;;;;5001948;28;20416;-82
2024/03/26 02:12:33;;;;;;;6.27;3.27;;;;;;;;;;5004418;28;20888;-82
2024/03/26 02:14:58;;;;;;;6.23;2.67;;;;;;;;;;5004737;28;20522;-81
2024/03/26 02:17:24;;;;;;;10.03;2.70;;;;;;;;;;5003592;28;20413;-82
2024/03/26 02:19:50;;;;;;;7.50;3.13;;;;;;;;;;5004574;28;20407;-82
2024/03/26 02:22:16;;;;;;;12.70;3.77;;;;;;;;;;5004355;28;20415;-83
2024/03/26 02:24:42;;;;;;;5.90;2.90;;;;;;;;;;5003063;28;20770;-81
2024/03/26 02:27:08;;;;;;;9.20;3.87;;;;;;;;;;5005043;28;20410;-85
2024/03/26 02:29:34;;;;;;;7.20;3.60;;;;;;;;;;5002993;28;20485;-83
2024/03/26 02:32:00;;;;;;;6.40;2.37;;;;;;;;;;5003504;28;20425;-84
2024/03/26 02:34:26;;;;;;;5.70;3.30;;;;;;;;;;5005423;28;20463;-83
2024/03/26 02:36:52;;;;;;;6.53;3.40;;;;;;;;;;5004308;28;20932;-83
2024/03/26 02:39:18;;;;;;;4.40;2.90;;;;;;;;;;5003828;28;20418;-84
2024/03/26 02:41:43;;;;;;;7.60;3.50;;;;;;;;;;5003444;28;20415;-81
2024/03/26 02:44:09;;;;;;;7.00;2.10;;;;;;;;;;5002173;28;20795;-83
2024/03/26 02:46:35;;;;;;;6.53;3.00;;;;;;;;;;5003071;28;20454;-80
2024/03/26 02:49:01;;;;;;;5.20;2.33;;;;;;;;;;5002968;28;20970;-80
2024/03/26 02:51:27;;;;;;;8.67;3.27;;;;;;;;;;5004788;28;20409;-80
2024/03/26 02:53:53;;;;;;;4.40;3.37;;;;;;;;;;5003590;28;20829;-80
2024/03/26 02:56:19;;;;;;;5.70;2.20;;;;;;;;;;5002939;28;20425;-80
2024/03/26 02:58:45;;;;;;;5.63;3.10;;;;;;;;;;5004593;28;20402;-80
2024/03/26 03:01:11;;;;;;;5.93;3.17;;;;;;;;;;5002998;28;20884;-81
2024/03/26 03:03:38;;;;;;;6.30;1.90;;;;;;;;;;5003432;28;20418;-80
2024/03/26 03:06:10;;;;;;;4.40;1.77;;;;;;;;;;5001857;28;20431;-80
2024/03/26 03:08:36;;;;;;;9.67;2.90;;;;;;;;;;5003673;28;20456;-80
2024/03/26 03:11:02;;;;;;;5.90;2.07;;;;;;;;;;5003914;28;20422;-80
2024/03/26 03:13:28;;;;;;;6.83;2.63;;;;;;;;;;5002363;28;20419;-80
2024/03/26 03:15:54;;;;;;;7.00;2.50;;;;;;;;;;5004620;28;20811;-81
2024/03/26 03:18:20;;;;;;;4.63;3.20;;;;;;;;;;5002748;28;20412;-80
2024/03/26 03:20:46;;;;;;;5.93;2.53;;;;;;;;;;5004039;28;20505;-81
2024/03/26 03:23:12;;;;;;;6.73;3.00;;;;;;;;;;5002348;28;21011;-84
2024/03/26 03:25:38;;;;;;;6.13;1.87;;;;;;;;;;5002880;28;20422;-80
2024/03/26 03:28:04;;;;;;;4.60;2.50;;;;;;;;;;5002351;28;20433;-81
2024/03/26 03:30:30;;;;;;;5.80;3.43;;;;;;;;;;5002122;28;20522;-82
2024/03/26 03:32:56;;;;;;;3.80;2.63;;;;;;;;;;5003873;28;20450;-82
2024/03/26 03:35:22;;;;;;;5.67;2.23;;;;;;;;;;5006217;28;20472;-81
2024/03/26 03:37:48;;;;;;;8.30;3.90;;;;;;;;;;5006022;28;20405;-81
2024/03/26 03:40:14;;;;;;;6.80;3.10;;;;;;;;;;5007952;28;20904;-81
2024/03/26 03:42:40;;;;;;;3.33;2.03;;;;;;;;;;5007091;28;20767;-81
2024/03/26 03:45:06;;;;;;;4.70;2.27;;;;;;;;;;5006022;28;20459;-81
2024/03/26 03:47:32;;;;;;;3.87;2.37;;;;;;;;;;5008079;28;20414;-82
2024/03/26 03:49:58;;;;;;;4.03;2.60;;;;;;;;;;5007028;28;20468;-81
2024/03/26 03:52:24;;;;;;;6.53;2.37;;;;;;;;;;5006205;28;20413;-80
2024/03/26 03:54:50;;;;;;;5.83;2.53;;;;;;;;;;5008117;28;20477;-81
2024/03/26 03:57:16;;;;;;;6.13;1.83;;;;;;;;;;5006492;28;20510;-80
2024/03/26 03:59:43;;;;;;;5.30;2.50;;;;;;;;;;5005241;28;20470;-81
2024/03/26 04:02:09;;;;;;;4.10;2.33;;;;;;;;;;5007937;28;20418;-81
2024/03/26 04:04:35;;;;;;;5.50;2.50;;;;;;;;;;5006485;28;20935;-82
2024/03/26 04:07:01;;;;;;;3.43;2.00;;;;;;;;;;5005254;28;20412;-82
2024/03/26 04:09:27;;;;;;;5.30;1.93;;;;;;;;;;5007966;28;20410;-81
2024/03/26 04:11:53;;;;;;;5.37;2.50;;;;;;;;;;5005943;28;20910;-82
2024/03/26 04:14:19;;;;;;;5.23;2.10;;;;;;;;;;5006509;28;20482;-81
2024/03/26 04:16:46;;;;;;;6.53;2.33;;;;;;;;;;5007442;28;20407;-81
2024/03/26 04:19:12;;;;;;;4.40;1.80;;;;;;;;;;5004595;28;20415;-81
2024/03/26 04:21:38;;;;;;;3.80;2.10;;;;;;;;;;5006619;28;20421;-81
2024/03/26 04:24:04;;;;;;;3.83;2.17;;;;;;;;;;5007362;28;20526;-81
2024/03/26 04:26:30;;;;;;;6.67;2.53;;;;;;;;;;5007396;28;20407;-81
2024/03/26 04:28:56;;;;;;;4.40;2.27;;;;;;;;;;5004816;28;20756;-81
2024/03/26 04:31:22;;;;;;;9.13;2.27;;;;;;;;;;5005929;28;20418;-81
2024/03/26 04:33:47;;;;;;;3.80;1.77;;;;;;;;;;5007075;28;20458;-80
2024/03/26 04:36:13;;;;;;;7.07;2.10;;;;;;;;;;5005812;28;20460;-81
2024/03/26 04:38:39;;;;;;;6.70;2.90;;;;;;;;;;5006162;28;20452;-82
2024/03/26 04:41:05;;;;;;;7.17;2.63;;;;;;;;;;5006806;28;20884;-81
2024/03/26 04:43:31;;;;;;;7.80;3.40;;;;;;;;;;5005274;28;20420;-81
2024/03/26 04:45:57;;;;;;;4.27;1.77;;;;;;;;;;5006214;28;20884;-81
2024/03/26 04:48:23;;;;;;;4.50;2.57;;;;;;;;;;5006620;28;20430;-82
2024/03/26 04:50:49;;;;;;;6.90;1.97;;;;;;;;;;5003798;28;20421;-81
2024/03/26 04:53:15;;;;;;;7.67;2.10;;;;;;;;;;5006573;28;20425;-81
2024/03/26 04:55:41;;;;;;;7.13;2.20;;;;;;;;;;5005695;28;20473;-81
2024/03/26 04:58:06;;;;;;;6.03;2.07;;;;;;;;;;5004584;28;20935;-81
2024/03/26 05:00:32;;;;;;;10.17;2.40;;;;;;;;;;5006555;28;20449;-81
2024/03/26 05:03:00;;;;;;;4.10;2.10;;;;;;;;;;5004467;28;20833;-81
2024/03/26 05:05:26;;;;;;;3.80;2.60;;;;;;;;;;5004667;28;20975;-80
2024/03/26 05:07:52;;;;;;;6.13;1.93;;;;;;;;;;5006519;28;20463;-81
2024/03/26 05:10:18;;;;;;;3.70;2.53;;;;;;;;;;5005193;28;20486;-81
2024/03/26 05:12:44;;;;;;;4.63;2.50;;;;;;;;;;5004452;28;20499;-81
2024/03/26 05:15:10;;;;;;;3.50;1.87;;;;;;;;;;5006094;28;20881;-82
2024/03/26 05:17:36;;;;;;;7.50;3.40;;;;;;;;;;5005150;28;20412;-81
2024/03/26 05:20:05;;;;;;;3.77;1.80;;;;;;;;;;5004549;28;20426;-81
2024/03/26 05:22:31;;;;;;;3.43;2.57;;;;;;;;;;5004772;28;20420;-81
2024/03/26 05:24:56;;;;;;;9.87;2.67;;;;;;;;;;5004683;28;20428;-81
2024/03/26 05:27:22;;;;;;;4.43;2.37;;;;;;;;;;5004130;28;20748;-81
2024/03/26 05:29:50;;;;;;;3.80;2.40;;;;;;;;;;5004534;28;20424;-80
2024/03/26 05:32:16;;;;;;;8.10;1.97;;;;;;;;;;5004427;28;20778;-81
2024/03/26 05:34:42;;;;;;;3.83;2.00;;;;;;;;;;5004619;28;20466;-81
2024/03/26 05:37:08;;;;;;;3.20;2.10;;;;;;;;;;5004458;28;20922;-81
2024/03/26 05:39:33;;;;;;;5.37;2.60;;;;;;;;;;5002838;28;20434;-80
2024/03/26 05:42:00;;;;;;;6.37;2.37;;;;;;;;;;5004171;28;20441;-81
2024/03/26 05:44:26;;;;;;;3.33;2.30;;;;;;;;;;5004342;28;21014;-80
2024/03/26 05:46:51;;;;;;;6.93;2.40;;;;;;;;;;5004217;28;20503;-83
2024/03/26 05:49:17;;;;;;;6.43;2.97;;;;;;;;;;5004432;28;20429;-84
2024/03/26 05:51:43;;;;;;;5.60;2.67;;;;;;;;;;5003969;28;20424;-81
2024/03/26 05:54:09;;;;;;;9.53;3.47;;;;;;;;;;5005384;28;20509;-81
2024/03/26 05:56:35;;;;;;;4.30;2.10;;;;;;;;;;5003052;28;20500;-82
2024/03/26 05:59:01;;;;;;;9.20;3.00;;;;;;;;;;5004009;28;20460;-82
2024/03/26 06:01:27;;;;;;;9.43;3.20;;;;;;;;;;5005262;28;20456;-83
2024/03/26 06:03:53;;;;;;;4.07;2.20;;;;;;;;;;5003555;28;20506;-82
2024/03/26 06:06:19;;;;;;;8.60;3.13;;;;;;;;;;5007176;28;20422;-81
2024/03/26 06:08:45;;;;;;;5.67;2.30;;;;;;;;;;5007546;28;20912;-82
2024/03/26 06:11:11;;;;;;;5.53;2.60;;;;;;;;;;5001528;28;20465;-83
2024/03/26 06:13:37;;;;;;;5.13;2.40;;;;;;;;;;5004167;28;20422;-81
2024/03/26 06:16:10;;;;;;;5.93;3.07;;;;;;;;;;5004579;28;20834;-82
2024/03/26 06:18:36;;;;;;;5.50;3.20;;;;;;;;;;5003579;28;20758;-82
2024/03/26 06:21:05;;;;;;;4.50;2.90;;;;;;;;;;5003510;28;20491;-82
2024/03/26 06:23:31;;;;;;;5.87;2.27;;;;;;;;;;5003520;28;20770;-83
2024/03/26 06:26:00;;;;;;;5.10;2.83;;;;;;;;;;5003279;28;20468;-82
2024/03/26 06:28:26;;;;;;;10.73;3.37;;;;;;;;;;5003009;28;20419;-82
2024/03/26 06:30:52;;;;;;;9.90;4.20;;;;;;;;;;5004614;28;20425;-82
2024/03/26 06:33:18;;;;;;;4.53;2.20;;;;;;;;;;5003643;28;20735;-81
2024/03/26 06:35:44;;;;;;;3.93;1.67;;;;;;;;;;5002823;28;20469;-80
2024/03/26 06:38:10;;;;;;;6.70;2.40;;;;;;;;;;5004650;28;20415;-81
2024/03/26 06:40:36;;;;;;;6.70;2.60;;;;;;;;;;5001778;28;20423;-82
2024/03/26 06:43:03;;;;;;;5.23;2.80;;;;;;;;;;5003858;28;20903;-82
2024/03/26 06:45:28;;;;;;;4.90;2.70;;;;;;;;;;5003056;28;20492;-82
2024/03/26 06:47:55;;;;;;;6.97;2.00;;;;;;;;;;5004631;28;20881;-82
2024/03/26 06:50:20;;;;;;;5.67;1.83;;;;;;;;;;5002808;28;20810;-81
2024/03/26 06:52:47;;;;;;;4.50;2.80;;;;;;;;;;5004688;28;20432;-81
2024/03/26 06:55:16;;;;;;;6.47;2.17;;;;;;;;;;5002365;28;20574;-81
2024/03/26 06:57:43;;;;;;;4.30;1.97;;;;;;;;;;5002706;28;20421;-83
2024/03/26 07:00:11;;;;;;;5.37;1.70;;;;;;;;;;5004274;28;20410;-81
2024/03/26 07:02:37;;;;;;;5.20;2.63;;;;;;;;;;5002929;28;20506;-81
2024/03/26 07:05:05;;;;;;;5.17;1.90;;;;;;;;;;5002431;28;20523;-81
2024/03/26 07:07:31;;;;;;;4.27;1.50;;;;;;;;;;5001582;28;20404;-81
2024/03/26 07:09:57;;;;;;;4.90;2.37;;;;;;;;;;5005350;28;20443;-81
2024/03/26 07:12:24;;;;;;;4.03;1.50;;;;;;;;;;5002524;28;20399;-81
2024/03/26 07:14:49;;;;;;;4.67;2.13;;;;;;;;;;5004162;28;20479;-83
2024/03/26 07:17:15;;;;;;;3.90;1.90;;;;;;;;;;5001980;28;20416;-84
2024/03/26 07:19:41;;;;;;;4.37;2.37;;;;;;;;;;5003234;28;20180;-81
2024/03/26 07:22:07;;;;;;;7.97;2.63;;;;;;;;;;5004331;28;20447;-82
2024/03/26 07:24:33;;;;;;;5.90;1.93;;;;;;;;;;5002235;28;20983;-82
2024/03/26 07:26:59;;;;;;;3.10;2.00;;;;;;;;;;5002694;28;20441;-83
2024/03/26 07:29:25;;;;;;;8.47;2.60;;;;;;;;;;5003656;28;20443;-82
2024/03/26 07:31:51;;;;;;;5.30;2.50;;;;;;;;;;5001621;28;20445;-82
2024/03/26 07:34:17;;;;;;;2.60;2.20;;;;;;;;;;5003197;28;20721;-82
2024/03/26 07:36:42;;;;;;;5.43;2.50;;;;;;;;;;5003458;28;20190;-82
2024/03/26 07:39:15;;;;;;;2.73;1.73;;;;;;;;;;5001843;28;20174;-80
2024/03/26 07:41:41;;;;;;;7.30;2.97;;;;;;;;;;5002372;28;20178;-80
2024/03/26 07:44:07;;;;;;;3.30;2.50;;;;;;;;;;5003691;28;20792;-80
2024/03/26 07:46:33;;;;;;;4.93;1.50;;;;;;;;;;5000582;28;20180;-81
2024/03/26 07:48:58;;;;;;;2.40;1.60;;;;;;;;;;5001598;28;20177;-81
2024/03/26 07:51:24;;;;;;;3.53;1.93;;;;;;;;;;5003541;28;20185;-80
2024/03/26 07:53:50;;;;;;;5.10;2.60;;;;;;;;;;5004272;28;20200;-81
2024/03/26 07:56:16;;;;;;;5.10;2.20;;;;;;;;;;5003150;28;20626;-81
2024/03/26 07:58:42;;;;;;;4.23;1.80;;;;;;;;;;5003226;28;20184;-81
2024/03/26 08:01:08;;;;;;;3.60;1.53;;;;;;;;;;5001678;28;20177;-81
2024/03/26 08:03:35;;;;;;;5.23;1.53;;;;;;;;;;5003701;28;20180;-81
2024/03/26 08:06:01;;;;;;;5.33;2.50;;;;;;;;;;5003107;28;20423;-81
2024/03/26 08:08:27;;;;;;;6.33;2.60;;;;;;;;;;5001617;28;20425;-81
2024/03/26 08:10:54;;;;;;;4.23;2.47;;;;;;;;;;5003147;28;20414;-80
2024/03/26 08:13:20;;;;;;;2.50;1.57;;;;;;;;;;5003303;28;20170;-81
2024/03/26 08:15:46;;;;;;;4.97;2.10;;;;;;;;;;5002326;28;20997;-80
2024/03/26 08:18:12;;;;;;;5.47;3.17;;;;;;;;;;5001980;28;20419;-79
2024/03/26 08:20:40;;;;;;;3.00;2.27;;;;;;;;;;5005993;28;20430;-83
2024/03/26 08:23:06;;;;;;;6.00;2.93;;;;;;;;;;5006185;28;20687;-82
2024/03/26 08:25:32;;;;;;;3.30;2.50;;;;;;;;;;5005033;28;20505;-81
2024/03/26 08:27:58;;;;;;;2.20;1.70;;;;;;;;;;5006968;28;20418;-80
2024/03/26 08:30:24;;;;;;;3.83;2.30;;;;;;;;;;5005759;28;20429;-80
2024/03/26 08:32:50;;;;;;;4.40;2.80;;;;;;;;;;5004008;28;20176;-81
2024/03/26 08:35:16;;;;;;;3.70;1.97;;;;;;;;;;5006802;28;20472;-81
2024/03/26 08:37:42;;;;;;;3.83;1.80;;;;;;;;;;5005049;28;20170;-81
2024/03/26 08:40:08;;;;;;;4.53;2.27;;;;;;;;;;5004607;28;20451;-85
2024/03/26 08:42:36;;;;;;;6.37;2.50;;;;;;;;;;5006787;28;20452;-83
2024/03/26 08:45:02;;;;;;;5.40;2.90;;;;;;;;;;5004937;28;20426;-81
2024/03/26 08:47:28;;;;;;;3.23;1.53;;;;;;;;;;4996655;28;20986;-81
2024/03/26 08:49:54;;;;;;;3.87;2.23;;;;;;;;;;5004012;28;20425;-81
2024/03/26 08:52:19;;;;;;;2.90;2.27;;;;;;;;;;5006243;28;20769;-80
2024/03/26 08:54:45;;;;;;;3.40;1.50;;;;;;;;;;5004765;28;20211;-82
2024/03/26 08:57:11;;;;;;;3.07;1.93;;;;;;;;;;5004908;28;20167;-81
2024/03/26 08:59:38;;;;;;;4.37;1.77;;;;;;;;;;5006502;28;20221;-80
2024/03/26 09:02:04;;;;;;;5.60;2.57;;;;;;;;;;5004634;28;20415;-82
2024/03/26 09:04:30;;;;;;;4.70;1.90;;;;;;;;;;5005409;28;20412;-81
2024/03/26 09:06:56;;;;;;;4.57;1.87;;;;;;;;;;5006183;28;20736;-85
2024/03/26 09:09:22;;;;;;;3.23;2.00;;;;;;;;;;5004205;28;20179;-81
2024/03/26 09:11:48;;;;;;;2.57;2.37;;;;;;;;;;5003944;28;20414;-82
2024/03/26 09:14:13;;;;;;;4.50;1.97;;;;;;;;;;5003373;28;20215;-81
2024/03/26 09:16:39;;;;;;;5.63;2.03;;;;;;;;;;4998637;28;20186;-81
2024/03/26 09:19:05;;;;;;;3.43;2.20;;;;;;;;;;5004449;28;20181;-84
2024/03/26 09:21:31;;;;;;;3.67;1.50;;;;;;;;;;5005004;28;20631;-84
2024/03/26 09:23:57;;;;;;;4.20;2.00;;;;;;;;;;5007366;28;20182;-85
2024/03/26 09:26:23;;;;;;;4.20;2.13;;;;;;;;;;5008402;28;20431;-84
2024/03/26 09:28:49;;;;;;;3.47;1.67;;;;;;;;;;5003339;28;20542;-82
2024/03/26 09:31:15;;;;;;;2.60;1.40;;;;;;;;;;5004619;28;20175;-83
2024/03/26 09:33:41;;;;;;;4.10;1.97;;;;;;;;;;5000283;28;20200;-84
2024/03/26 09:36:07;;;;;;;3.00;1.50;;;;;;;;;;4995529;28;20226;-82
2024/03/26 09:38:33;;;;;;;3.43;1.63;;;;;;;;;;4995507;28;20418;-82
2024/03/26 09:41:01;;;;;;;2.80;2.33;;;;;;;;;;4994906;28;20415;-82
2024/03/26 09:43:28;;;;;;;3.97;2.03;;;;;;;;;;4995429;28;20683;-84
2024/03/26 09:45:56;;;;;;;4.10;1.77;;;;;;;;;;4995392;28;20762;-82
2024/03/26 09:48:22;;;;;;;6.10;2.60;;;;;;;;;;4994155;28;20767;-83
2024/03/26 09:50:48;;;;;;;3.27;1.60;;;;;;;;;;4994950;28;20422;-81
2024/03/26 09:53:16;;;;;;;2.30;1.70;;;;;;;;;;4995118;28;20414;-80
2024/03/26 09:55:42;;;;;;;2.20;1.60;;;;;;;;;;4994780;28;20573;-81
2024/03/26 09:58:08;;;;;;;2.33;1.60;;;;;;;;;;4995127;28;20443;-82
2024/03/26 10:00:34;;;;;;;3.43;1.57;;;;;;;;;;4995100;28;20429;-84
2024/03/26 10:03:01;;;;;;;2.30;1.87;;;;;;;;;;5001413;28;20186;-81
2024/03/26 10:05:28;;;;;;;2.47;1.83;;;;;;;;;;4993629;28;20427;-80
2024/03/26 10:07:54;;;;;;;2.60;1.93;;;;;;;;;;4995015;28;20410;-80
2024/03/26 10:10:21;;;;;;;2.60;1.93;;;;;;;;;;4994607;28;20420;-87
2024/03/26 10:12:47;;;;;;;3.57;2.87;;;;;;;;;;5010461;28;20177;-87
2024/03/26 10:15:13;;;;;;;2.20;1.57;;;;;;;;;;4994502;28;20486;-86
2024/03/26 10:17:38;;;;;;;3.13;1.50;;;;;;;;;;4993320;28;20536;-86
2024/03/26 10:20:05;;;;;;;3.67;1.77;;;;;;;;;;4993786;28;20185;-88
2024/03/26 10:22:31;;;;;;;3.10;1.80;;;;;;;;;;4995194;28;20180;-87
2024/03/26 10:24:57;;;;;;;3.40;2.10;;;;;;;;;;4994317;28;20794;-88
2024/03/26 10:27:23;;;;;;;3.07;2.23;;;;;;;;;;4997894;28;20461;-86
2024/03/26 10:29:52;;;;;;;2.23;1.87;;;;;;;;;;5015510;28;20417;-88
2024/03/26 10:32:20;;;;;;;3.20;2.07;;;;;;;;;;5014676;28;20406;-88
2024/03/26 10:34:48;;;;;;;3.30;1.80;;;;;;;;;;5003031;28;21003;-86
2024/03/26 10:37:14;;;;;;;4.80;1.60;;;;;;;;;;4993066;28;20796;-87
2024/03/26 10:39:44;;;;;;;4.40;1.83;;;;;;;;;;5010289;28;20930;-86
2024/03/26 10:42:10;;;;;;;3.53;1.40;;;;;;;;;;5013827;28;20483;-86
2024/03/26 10:44:37;;;;;;;2.60;1.67;;;;;;;;;;5013118;28;20951;-87
2024/03/26 10:47:03;;;;;;;2.10;1.67;;;;;;;;;;5014074;28;20419;-87
2024/03/26 10:49:29;;;;;;;2.97;1.50;;;;;;;;;;5014199;28;20418;-87
2024/03/26 10:51:57;;;;;;;2.60;2.07;;;;;;;;;;5012475;28;20472;-87
2024/03/26 10:54:24;;;;;;;2.77;1.50;;;;;;;;;;5013688;28;20782;-87
2024/03/26 10:56:51;;;;;;;3.70;2.37;;;;;;;;;;5012628;28;20436;-86
2024/03/26 10:59:20;;;;;;;3.40;2.20;;;;;;;;;;5013785;28;20488;-88
2024/03/26 11:01:47;;;;;;;4.60;3.10;;;;;;;;;;5023391;28;20425;-85
2024/03/26 11:04:13;;;;;;;3.13;1.90;;;;;;;;;;5020783;28;20403;-88
2024/03/26 11:06:40;;;;;;;3.20;1.93;;;;;;;;;;5016985;28;20429;-86
2024/03/26 11:09:09;;;;;;;2.73;2.03;;;;;;;;;;5013103;28;20426;-89
2024/03/26 11:11:49;;;;;;;2.07;1.23;;;;;;;;;;4995652;28;20421;-85
2024/03/26 11:14:15;;;;;;;2.13;1.93;;;;;;;;;;5012294;28;20491;-86
2024/03/26 11:16:42;;;;;;;4.60;2.00;;;;;;;;;;5013659;28;20882;-86
2024/03/26 11:19:18;;;;;;;4.57;2.50;;;;;;;;;;5013317;28;20430;-86
2024/03/26 11:21:45;;;;;;;3.30;1.90;;;;;;;;;;5013445;28;20419;-87
2024/03/26 11:24:31;;;;;;;3.50;2.17;;;;;;;;;;5013735;28;20501;-86
2024/03/26 11:26:58;;;;;;;2.70;1.27;;;;;;;;;;5011919;28;20430;-89
2024/03/26 11:29:24;;;;;;;2.60;2.33;;;;;;;;;;5013111;28;20949;-91
2024/03/26 11:31:51;;;;;;;2.90;1.80;;;;;;;;;;5016118;28;20434;-89
2024/03/26 11:34:17;;;;;;;4.80;2.33;;;;;;;;;;5014182;28;20465;-87
2024/03/26 11:36:43;;;;;;;3.33;1.60;;;;;;;;;;5011733;28;20413;-86
2024/03/26 11:39:09;;;;;;;3.93;1.80;;;;;;;;;;5010786;28;20524;-81
2024/03/26 11:41:35;;;;;;;2.13;1.17;;;;;;;;;;5011374;28;20509;-79
2024/03/26 11:44:01;;;;;;;3.07;1.83;;;;;;;;;;5012994;28;20424;-80
2024/03/26 11:46:27;;;;;;;1.60;0.90;;;;;;;;;;5004733;28;20413;-82
2024/03/26 11:49:11;;;;;;;2.17;1.33;;;;;;;;;;4993551;28;20422;-81
2024/03/26 11:51:37;;;;;;;2.20;0.93;;;;;;;;;;4993934;28;20302;-82
2024/03/26 11:54:03;;;;;;;3.13;1.13;;;;;;;;;;4994941;28;20545;-82
2024/03/26 11:56:30;;;;;;;2.73;1.17;;;;;;;;;;4997121;28;20422;-83
2024/03/26 11:58:57;;;;;;;2.93;1.03;;;;;;;;;;4997511;28;20414;-81
2024/03/26 12:01:24;;;;;;;1.77;1.10;;;;;;;;;;4997344;28;20428;-84
2024/03/26 12:03:50;;;;;;;2.47;0.93;;;;;;;;;;4997361;28;20420;-81
2024/03/26 12:06:16;;;;;;;4.50;1.67;;;;;;;;;;4997269;28;20413;-81
2024/03/26 12:08:42;;;;;;;2.80;1.00;;;;;;;;;;4997291;28;20424;-81
2024/03/26 12:11:08;;;;;;;2.40;0.90;;;;;;;;;;4996819;28;20480;-80
2024/03/26 12:13:35;;;;;;;2.63;1.40;;;;;;;;;;4996878;28;20420;-80
2024/03/26 12:16:00;;;;;;;3.40;0.97;;;;;;;;;;5001844;28;20473;-81
2024/03/26 12:18:26;;;;;;;3.17;1.47;;;;;;;;;;5013810;28;20529;-82
2024/03/26 12:20:52;;;;;;;2.67;1.23;;;;;;;;;;5015307;28;20186;-81
2024/03/26 12:23:22;;;;;;;2.07;1.00;;;;;;;;;;5015141;28;20818;-81
2024/03/26 12:25:48;;;;;;;2.17;0.97;;;;;;;;;;5016038;28;20501;-79
2024/03/26 12:28:14;;;;;;;1.77;0.80;;;;;;;;;;5016165;28;20460;-81
2024/03/26 12:30:40;;;;;;;2.53;1.07;;;;;;;;;;5016382;28;20418;-80
2024/03/26 12:33:07;;;;;;;1.37;0.63;;;;;;;;;;5011942;28;20435;-82
2024/03/26 12:35:33;;;;;;;1.40;1.13;;;;;;;;;;5013049;28;20544;-81
2024/03/26 12:37:59;;;;;;;2.20;1.07;;;;;;;;;;5016272;28;20513;-82
2024/03/26 12:40:25;;;;;;;1.43;0.63;;;;;;;;;;5015928;28;20419;-80
2024/03/26 12:42:51;;;;;;;3.07;0.93;;;;;;;;;;5016272;28;20222;-80
2024/03/26 12:45:17;;;;;;;3.80;1.40;;;;;;;;;;5016158;28;20498;-81
2024/03/26 12:47:43;;;;;;;2.50;1.57;;;;;;;;;;5016029;28;20637;-80
2024/03/26 12:50:09;;;;;;;1.77;0.80;;;;;;;;;;5011115;28;20181;-80
2024/03/26 12:52:39;;;;;;;1.77;0.87;;;;;;;;;;5006673;28;20229;-83
2024/03/26 12:55:05;;;;;;;3.10;1.23;;;;;;;;;;4995856;28;20474;-80
2024/03/26 12:57:31;;;;;;;3.10;1.03;;;;;;;;;;4996275;28;20407;-82
2024/03/26 12:59:58;;;;;;;3.27;1.87;;;;;;;;;;4996210;28;20424;-80
2024/03/26 13:02:23;;;;;;;3.20;1.17;;;;;;;;;;4996124;28;20181;-80
2024/03/26 13:04:49;;;;;;;2.13;1.50;;;;;;;;;;4994104;28;20794;-81
2024/03/26 13:07:15;;;;;;;2.67;0.83;;;;;;;;;;4995630;28;20474;-84
2024/03/26 13:09:41;;;;;;;2.10;1.47;;;;;;;;;;4995745;28;20176;-83
2024/03/26 13:12:07;;;;;;;3.13;1.57;;;;;;;;;;4994762;28;20656;-84
2024/03/26 13:14:33;;;;;;;2.40;1.20;;;;;;;;;;4994457;28;20235;-79
2024/03/26 13:16:59;;;;;;;2.80;1.50;;;;;;;;;;4996035;28;20415;-79
2024/03/26 13:19:27;;;;;;;1.53;1.40;;;;;;;;;;4996586;28;20628;-79
2024/03/26 13:21:53;;;;;;;2.83;1.20;;;;;;;;;;5015443;28;20414;-79
2024/03/26 13:24:20;;;;;;;3.73;1.30;;;;;;;;;;5015052;28;20766;-83
2024/03/26 13:26:48;;;;;;;3.40;0.97;;;;;;;;;;5015380;28;20182;-83
2024/03/26 13:29:14;;;;;;;5.07;1.83;;;;;;;;;;5015271;28;20443;-84
2024/03/26 13:31:40;;;;;;;3.57;2.20;;;;;;;;;;5015324;28;20935;-81
2024/03/26 13:34:05;;;;;;;2.57;2.00;;;;;;;;;;5015199;28;20290;-84
2024/03/26 13:36:32;;;;;;;4.90;2.60;;;;;;;;;;5015182;28;20431;-81
2024/03/26 13:39:02;;;;;;;3.00;2.30;;;;;;;;;;5015008;28;20172;-80
2024/03/26 13:41:28;;;;;;;3.97;2.30;;;;;;;;;;5014849;28;20745;-81
2024/03/26 13:43:55;;;;;;;5.20;3.10;;;;;;;;;;5013625;28;20470;-79
2024/03/26 13:46:20;;;;;;;2.63;1.80;;;;;;;;;;5014955;28;20184;-79
2024/03/26 13:48:46;;;;;;;3.70;2.50;;;;;;;;;;5014893;28;20416;-79
2024/03/26 13:51:12;;;;;;;6.23;3.50;;;;;;;;;;5014847;28;20213;-82
2024/03/26 13:53:39;;;;;;;3.90;2.87;;;;;;;;;;5014896;28;20171;-80
2024/03/26 13:56:06;;;;;;;2.67;2.20;;;;;;;;;;5014391;28;20175;-83
2024/03/26 13:58:32;;;;;;;3.17;2.70;;;;;;;;;;5014686;28;20417;-80
2024/03/26 14:00:58;;;;;;;2.70;1.47;;;;;;;;;;5014745;28;20418;-81
2024/03/26 14:03:23;;;;;;;3.47;1.87;;;;;;;;;;5014655;28;20427;-82
2024/03/26 14:05:49;;;;;;;2.73;1.77;;;;;;;;;;5013425;28;20417;-82
2024/03/26 14:08:15;;;;;;;4.20;2.70;;;;;;;;;;5013317;28;20513;-82
2024/03/26 14:10:41;;;;;;;3.40;1.43;;;;;;;;;;5014179;28;20418;-79
2024/03/26 14:13:07;;;;;;;2.70;1.90;;;;;;;;;;5014576;28;20171;-80
2024/03/26 14:15:33;;;;;;;3.30;1.73;;;;;;;;;;5014221;28;20280;-79
2024/03/26 14:17:59;;;;;;;3.87;1.77;;;;;;;;;;5014079;28;20229;-79
2024/03/26 14:20:25;;;;;;;1.87;1.27;;;;;;;;;;5014053;28;20640;-79
2024/03/26 14:22:51;;;;;;;4.17;2.10;;;;;;;;;;5014288;28;20242;-79
2024/03/26 14:25:18;;;;;;;3.87;2.70;;;;;;;;;;5013874;28;20509;-78
2024/03/26 14:27:44;;;;;;;4.20;2.23;;;;;;;;;;5014086;28;20174;-79
2024/03/26 14:30:10;;;;;;;4.67;1.80;;;;;;;;;;5013826;28;20449;-79
2024/03/26 14:32:36;;;;;;;6.00;2.20;;;;;;;;;;5014056;28;20418;-80
2024/03/26 14:35:06;;;;;;;3.83;2.47;;;;;;;;;;5013881;28;20841;-82
2024/03/26 14:37:32;;;;;;;3.07;2.13;;;;;;;;;;5013813;28;20441;-79